Time;durP1;ratioP1;P1;durP2;ratioP2;P2;SDS_P1;SDS_P2;PMS_P1;PMS_P2;Temp;Humidity;BMP_temperature;BMP_pressure;BME280_temperature;BME280_humidity;BME280_pressure;Samples;Min_cycle;Max_cycle;Signal;HPM_P1;HPM_P2
2021/01/04 00:02:01;;;;;;;18.73;12.93;;;3.20;87.40;;;;;;5094747;28;20040;-72
2021/01/04 00:04:56;;;;;;;18.98;12.90;;;3.20;87.60;;;;;;5095343;28;20024;-74
2021/01/04 00:07:48;;;;;;;20.80;13.75;;;3.10;87.80;;;;;;5100446;28;20032;-73
2021/01/04 00:10:28;;;;;;;20.50;14.05;;;3.10;87.90;;;;;;5092604;28;20031;-73
2021/01/04 00:13:17;;;;;;;17.73;13.02;;;3.10;88.00;;;;;;5092954;28;20046;-73
2021/01/04 00:15:53;;;;;;;20.83;13.88;;;3.10;88.10;;;;;;5081937;28;20043;-72
2021/01/04 00:18:45;;;;;;;23.35;15.80;;;3.10;88.20;;;;;;5095080;28;20050;-72
2021/01/04 00:21:24;;;;;;;22.15;14.43;;;3.10;88.30;;;;;;5094247;28;20115;-74
2021/01/04 00:24:02;;;;;;;22.40;14.18;;;3.10;88.50;;;;;;5092081;28;20024;-73
2021/01/04 00:26:38;;;;;;;19.13;12.93;;;3.20;88.60;;;;;;5094753;28;20039;-73
2021/01/04 00:29:04;;;;;;;19.95;13.40;;;3.10;88.50;;;;;;5099175;28;20027;-72
2021/01/04 00:31:34;;;;;;;20.20;13.75;;;3.10;88.80;;;;;;5075231;28;20020;-73
2021/01/04 00:34:20;;;;;;;22.25;13.93;;;3.10;88.90;;;;;;5094518;28;20036;-73
2021/01/04 00:36:57;;;;;;;22.00;13.65;;;3.10;89.00;;;;;;5088856;28;20054;-74
2021/01/04 00:39:43;;;;;;;19.75;14.02;;;3.10;89.30;;;;;;5095260;28;20044;-72
2021/01/04 00:42:45;;;;;;;20.63;13.85;;;3.10;89.40;;;;;;5098809;28;20043;-74
2021/01/04 00:45:39;;;;;;;20.40;13.80;;;3.10;89.70;;;;;;5099100;28;20032;-72
2021/01/04 00:48:30;;;;;;;22.27;13.88;;;3.10;89.70;;;;;;5094195;28;20756;-72
2021/01/04 00:51:20;;;;;;;18.33;12.93;;;3.10;89.70;;;;;;5079506;28;20378;-73
2021/01/04 00:53:51;;;;;;;19.13;13.00;;;3.10;89.60;;;;;;5090751;28;20028;-76
2021/01/04 00:56:57;;;;;;;21.77;13.30;;;3.10;89.40;;;;;;5074738;28;20379;-73
2021/01/04 01:00:07;;;;;;;19.63;12.88;;;3.10;89.30;;;;;;5088962;28;20100;-73
2021/01/04 01:02:50;;;;;;;21.15;13.05;;;3.20;89.10;;;;;;5095151;28;20526;-73
2021/01/04 01:05:19;;;;;;;20.13;12.48;;;3.10;89.10;;;;;;5094309;28;20039;-73
2021/01/04 01:08:23;;;;;;;23.15;12.95;;;3.10;89.10;;;;;;5093055;28;20032;-72
2021/01/04 01:11:01;;;;;;;21.17;13.50;;;3.20;89.30;;;;;;5094422;28;20047;-73
2021/01/04 01:13:54;;;;;;;22.63;13.85;;;3.20;89.40;;;;;;5093775;28;20028;-74
2021/01/04 01:16:34;;;;;;;19.20;13.40;;;3.10;89.60;;;;;;5083958;28;20055;-72
2021/01/04 01:19:36;;;;;;;20.23;14.60;;;3.10;89.50;;;;;;5095882;28;20071;-74
2021/01/04 01:22:03;;;;;;;24.23;14.63;;;3.10;89.70;;;;;;5101221;28;20051;-74
2021/01/04 01:24:30;;;;;;;21.55;15.18;;;3.10;89.60;;;;;;5100273;28;20078;-76
2021/01/04 01:27:14;;;;;;;22.10;14.48;;;3.10;89.60;;;;;;5096997;28;20032;-76
2021/01/04 01:30:17;;;;;;;20.95;15.02;;;3.00;89.90;;;;;;5096387;28;20525;-74
2021/01/04 01:33:04;;;;;;;23.63;16.27;;;3.00;90.10;;;;;;5100883;28;20087;-74
2021/01/04 01:36:12;;;;;;;21.38;14.70;;;3.10;90.20;;;;;;5097477;28;20043;-75
2021/01/04 01:38:59;;;;;;;24.30;14.50;;;3.00;90.40;;;;;;5081283;28;20105;-75
2021/01/04 01:42:02;;;;;;;19.88;14.52;;;3.00;90.50;;;;;;5073893;28;20036;-74
2021/01/04 01:44:46;;;;;;;21.88;15.48;;;2.90;90.80;;;;;;5094825;28;20068;-74
2021/01/04 01:47:24;;;;;;;24.25;15.93;;;2.90;90.80;;;;;;5094479;28;20035;-74
2021/01/04 01:50:09;;;;;;;21.10;14.75;;;2.90;91.00;;;;;;5100323;28;20485;-75
2021/01/04 01:52:38;;;;;;;;;;;2.90;91.00;;;;;;5099068;28;20045;-73
2021/01/04 01:55:17;;;;;;;22.73;15.07;;;2.90;91.10;;;;;;5090290;28;19970;-74
2021/01/04 01:58:01;;;;;;;21.88;15.50;;;2.90;91.10;;;;;;5094910;28;20040;-73
2021/01/04 02:00:42;;;;;;;24.35;16.63;;;3.00;91.10;;;;;;5094560;28;20040;-73
2021/01/04 02:03:39;;;;;;;22.65;16.20;;;2.90;91.20;;;;;;5094507;28;20027;-73
2021/01/04 02:06:19;;;;;;;22.77;15.85;;;3.00;91.10;;;;;;5100618;28;20663;-74
2021/01/04 02:08:52;;;;;;;22.10;15.18;;;3.00;91.00;;;;;;5102029;28;20038;-75
2021/01/04 02:11:31;;;;;;;24.70;16.65;;;3.00;90.90;;;;;;5090952;28;20019;-74
2021/01/04 02:14:24;;;;;;;23.77;15.82;;;3.00;91.00;;;;;;5099139;28;20023;-73
2021/01/04 02:17:21;;;;;;;21.25;15.52;;;3.00;91.10;;;;;;5100657;28;20032;-73
2021/01/04 02:20:08;;;;;;;23.48;15.88;;;3.10;91.10;;;;;;5091423;28;20040;-73
2021/01/04 02:22:52;;;;;;;22.15;16.25;;;3.00;91.00;;;;;;5095395;28;20374;-75
2021/01/04 02:25:18;;;;;;;25.17;16.45;;;3.00;91.10;;;;;;5093802;28;20083;-73
2021/01/04 02:27:53;;;;;;;23.42;16.40;;;3.10;91.00;;;;;;5091287;28;20082;-74
2021/01/04 02:30:19;;;;;;;24.55;16.80;;;3.10;90.90;;;;;;5089560;28;20031;-73
2021/01/04 02:32:45;;;;;;;25.52;17.00;;;3.10;91.10;;;;;;5100704;28;20039;-74
2021/01/04 02:35:12;;;;;;;25.17;16.63;;;3.10;91.00;;;;;;5087474;28;20647;-73
2021/01/04 02:37:38;;;;;;;25.85;17.38;;;3.10;91.00;;;;;;5093799;28;20063;-73
2021/01/04 02:40:09;;;;;;;22.67;15.65;;;3.10;91.00;;;;;;5093054;28;20100;-73
2021/01/04 02:42:41;;;;;;;23.77;17.25;;;3.10;91.00;;;;;;5098313;28;20120;-75
2021/01/04 02:45:26;;;;;;;23.05;17.38;;;3.10;91.20;;;;;;5098082;28;20108;-74
2021/01/04 02:48:14;;;;;;;23.05;16.92;;;3.10;91.20;;;;;;5094801;28;20462;-73
2021/01/04 02:51:02;;;;;;;24.27;16.45;;;3.10;91.20;;;;;;5094708;28;20036;-75
2021/01/04 02:53:48;;;;;;;23.58;15.98;;;3.10;91.20;;;;;;5098376;28;20028;-73
2021/01/04 02:56:23;;;;;;;25.20;17.00;;;3.10;91.10;;;;;;5092229;28;20035;-74
2021/01/04 02:59:09;;;;;;;22.80;16.05;;;3.10;90.90;;;;;;5088965;28;20036;-73
2021/01/04 03:02:04;;;;;;;22.67;16.88;;;3.10;90.80;;;;;;5072104;28;20436;-75
2021/01/04 03:04:34;;;;;;;23.93;16.97;;;3.10;91.00;;;;;;5101001;28;20028;-74
2021/01/04 03:07:12;;;;;;;27.15;18.58;;;3.10;90.90;;;;;;5093463;28;20036;-74
2021/01/04 03:09:43;;;;;;;25.38;18.20;;;3.10;90.90;;;;;;5097836;28;20039;-73
2021/01/04 03:12:14;;;;;;;24.70;18.13;;;3.10;90.90;;;;;;5091415;28;20028;-73
2021/01/04 03:14:59;;;;;;;25.83;18.13;;;3.10;91.00;;;;;;5095324;28;20020;-76
2021/01/04 03:17:43;;;;;;;27.20;19.02;;;3.10;91.00;;;;;;5094223;28;20355;-73
2021/01/04 03:20:13;;;;;;;26.35;19.08;;;3.10;90.90;;;;;;5089416;28;20123;-77
2021/01/04 03:22:39;;;;;;;26.83;19.05;;;3.10;91.10;;;;;;5092335;28;20466;-72
2021/01/04 03:25:16;;;;;;;27.23;18.88;;;3.10;91.10;;;;;;5097444;28;20583;-75
2021/01/04 03:27:42;;;;;;;25.08;18.52;;;3.10;91.20;;;;;;5098876;28;21082;-73
2021/01/04 03:30:10;;;;;;;27.75;19.40;;;3.10;91.10;;;;;;5102530;28;20036;-74
2021/01/04 03:32:37;;;;;;;27.50;18.98;;;3.10;91.10;;;;;;5075753;28;20471;-74
2021/01/04 03:35:03;;;;;;;28.10;20.35;;;3.10;91.10;;;;;;5096760;28;20333;-72
2021/01/04 03:37:29;;;;;;;24.83;18.08;;;3.10;91.20;;;;;;5089407;28;20032;-73
2021/01/04 03:39:55;;;;;;;27.15;18.83;;;3.00;91.20;;;;;;5091892;28;20405;-73
2021/01/04 03:42:20;;;;;;;29.35;20.98;;;3.00;91.30;;;;;;5087687;28;20082;-74
2021/01/04 03:44:46;;;;;;;30.80;21.58;;;3.00;91.20;;;;;;5096105;28;20048;-76
2021/01/04 03:47:11;;;;;;;28.40;19.63;;;3.00;91.20;;;;;;5098175;28;20062;-73
2021/01/04 03:49:37;;;;;;;27.63;19.98;;;3.00;91.40;;;;;;5092332;28;20062;-74
2021/01/04 03:52:04;;;;;;;29.27;20.48;;;2.90;91.50;;;;;;5091455;28;20024;-74
2021/01/04 03:54:30;;;;;;;36.03;22.92;;;2.90;91.50;;;;;;5086354;28;20028;-75
2021/01/04 03:56:55;;;;;;;30.58;20.77;;;2.90;91.50;;;;;;5088532;28;20092;-73
2021/01/04 03:59:21;;;;;;;30.25;21.50;;;2.90;91.40;;;;;;5095820;28;20044;-73
2021/01/04 04:01:51;;;;;;;31.08;22.38;;;2.90;91.60;;;;;;5092184;28;20040;-74
2021/01/04 04:04:18;;;;;;;30.02;21.38;;;2.90;91.70;;;;;;5095659;28;20039;-73
2021/01/04 04:06:43;;;;;;;32.38;22.08;;;2.90;91.80;;;;;;5096325;28;20031;-73
2021/01/04 04:09:11;;;;;;;28.60;20.48;;;2.90;91.80;;;;;;5094457;28;20031;-73
2021/01/04 04:11:36;;;;;;;29.30;21.13;;;2.90;91.90;;;;;;5089169;28;20788;-73
2021/01/04 04:14:04;;;;;;;29.30;20.02;;;2.90;92.00;;;;;;5087638;28;20066;-73
2021/01/04 04:16:30;;;;;;;29.42;20.27;;;2.90;91.90;;;;;;5091821;28;20023;-73
2021/01/04 04:18:56;;;;;;;29.15;19.92;;;2.90;92.00;;;;;;5096494;28;20032;-74
2021/01/04 04:21:21;;;;;;;28.50;20.50;;;2.90;92.00;;;;;;5098226;28;20028;-73
2021/01/04 04:23:47;;;;;;;33.03;19.67;;;3.00;91.90;;;;;;5093206;28;20046;-74
2021/01/04 04:26:20;;;;;;;26.90;18.98;;;2.90;91.90;;;;;;5090863;28;20165;-73
2021/01/04 04:28:46;;;;;;;27.20;18.00;;;3.00;91.80;;;;;;5094302;28;20031;-75
2021/01/04 04:31:12;;;;;;;27.02;19.35;;;3.00;91.90;;;;;;5092415;28;20374;-74
2021/01/04 04:33:39;;;;;;;30.50;20.98;;;3.00;91.70;;;;;;5092952;28;20386;-73
2021/01/04 04:36:06;;;;;;;28.15;19.63;;;3.00;91.70;;;;;;5085905;28;20417;-72
2021/01/04 04:38:32;;;;;;;30.25;20.25;;;3.00;91.70;;;;;;5093897;28;20089;-74
2021/01/04 04:40:58;;;;;;;28.98;20.63;;;3.00;91.80;;;;;;5096518;28;20052;-74
2021/01/04 04:43:37;;;;;;;29.45;21.65;;;3.10;91.80;;;;;;5096309;28;20027;-73
2021/01/04 04:46:32;;;;;;;28.23;20.13;;;3.00;91.60;;;;;;5096004;28;20026;-74
2021/01/04 04:49:05;;;;;;;30.17;21.40;;;2.90;91.70;;;;;;5075542;28;20376;-74
2021/01/04 04:52:06;;;;;;;28.90;20.38;;;2.90;91.80;;;;;;5090954;28;20024;-74
2021/01/04 04:54:53;;;;;;;28.52;20.27;;;2.90;91.60;;;;;;5084123;28;20510;-74
2021/01/04 04:58:03;;;;;;;27.55;18.90;;;2.90;91.70;;;;;;5088640;28;20028;-76
2021/01/04 05:01:01;;;;;;;27.13;19.73;;;2.90;91.60;;;;;;5092736;28;20028;-74
2021/01/04 05:03:26;;;;;;;26.80;18.27;;;2.90;91.30;;;;;;5061072;28;20032;-75
2021/01/04 05:06:30;;;;;;;27.20;19.75;;;2.90;91.30;;;;;;5101023;28;20036;-73
2021/01/04 05:09:20;;;;;;;25.13;18.38;;;2.90;91.30;;;;;;4996148;28;20046;-73
2021/01/04 05:12:00;;;;;;;25.73;19.17;;;2.90;91.40;;;;;;4999845;28;20033;-75
2021/01/04 05:14:28;;;;;;;28.50;20.98;;;2.90;91.50;;;;;;5051801;28;20032;-73
2021/01/04 05:16:54;;;;;;;29.13;20.30;;;2.90;91.50;;;;;;5094444;28;20111;-73
2021/01/04 05:19:46;;;;;;;25.77;19.02;;;2.90;91.70;;;;;;5095300;28;20426;-74
2021/01/04 05:22:31;;;;;;;26.90;18.70;;;2.90;91.80;;;;;;5092687;28;20051;-74
2021/01/04 05:25:23;;;;;;;27.63;19.35;;;2.90;91.80;;;;;;5103363;28;20074;-74
2021/01/04 05:28:19;;;;;;;26.75;18.77;;;2.80;91.90;;;;;;5098388;28;20150;-73
2021/01/04 05:31:15;;;;;;;29.80;19.80;;;2.80;91.90;;;;;;5097750;28;20036;-76
2021/01/04 05:33:59;;;;;;;28.92;21.02;;;2.80;91.90;;;;;;5095044;28;20047;-75
2021/01/04 05:36:40;;;;;;;29.58;21.73;;;2.80;92.10;;;;;;5094569;28;20112;-74
2021/01/04 05:39:28;;;;;;;30.85;22.38;;;2.80;92.20;;;;;;5090941;28;20360;-74
2021/01/04 05:42:13;;;;;;;28.00;21.08;;;2.80;92.30;;;;;;5090471;28;20024;-73
2021/01/04 05:45:00;;;;;;;29.08;20.55;;;2.80;92.10;;;;;;5076439;28;20432;-73
2021/01/04 05:47:32;;;;;;;29.45;20.33;;;2.80;92.00;;;;;;5098317;28;20521;-74
2021/01/04 05:50:24;;;;;;;27.80;20.08;;;2.80;92.00;;;;;;5095470;28;20478;-76
2021/01/04 05:52:53;;;;;;;30.05;19.77;;;2.80;92.00;;;;;;5097230;28;20036;-73
2021/01/04 05:55:19;;;;;;;26.50;19.55;;;2.80;91.90;;;;;;5094551;28;20028;-75
2021/01/04 05:57:52;;;;;;;27.52;19.08;;;2.80;91.90;;;;;;5102783;28;20047;-73
2021/01/04 06:00:35;;;;;;;27.33;19.48;;;2.80;92.00;;;;;;5075139;28;20047;-74
2021/01/04 06:03:07;;;;;;;27.38;19.55;;;2.70;91.90;;;;;;5101492;28;20502;-74
2021/01/04 06:05:32;;;;;;;24.63;17.95;;;2.80;91.70;;;;;;5092328;28;20518;-74
2021/01/04 06:07:58;;;;;;;24.50;17.27;;;2.70;91.70;;;;;;5090570;28;20130;-73
2021/01/04 06:10:30;;;;;;;22.90;15.82;;;2.70;91.60;;;;;;5100949;28;20054;-73
2021/01/04 06:12:57;;;;;;;23.83;17.35;;;2.70;91.50;;;;;;5091955;28;20028;-73
2021/01/04 06:15:38;;;;;;;20.92;15.65;;;2.60;91.30;;;;;;5094570;28;20034;-74
2021/01/04 06:18:11;;;;;;;22.42;16.00;;;2.60;91.50;;;;;;5091276;28;20039;-72
2021/01/04 06:20:43;;;;;;;23.88;16.98;;;2.60;91.60;;;;;;5097342;28;20463;-73
2021/01/04 06:23:14;;;;;;;23.17;15.98;;;2.50;91.60;;;;;;5099589;28;20043;-74
2021/01/04 06:25:39;;;;;;;23.00;16.50;;;2.50;91.50;;;;;;5088519;28;20036;-73
2021/01/04 06:28:05;;;;;;;22.40;15.23;;;2.50;91.50;;;;;;5097405;28;20095;-73
2021/01/04 06:30:37;;;;;;;23.63;16.40;;;2.50;91.60;;;;;;5102096;28;20063;-74
2021/01/04 06:33:28;;;;;;;23.52;16.33;;;2.50;91.70;;;;;;5089207;28;20078;-74
2021/01/04 06:36:16;;;;;;;25.17;16.98;;;2.50;91.50;;;;;;5101872;28;20031;-73
2021/01/04 06:38:43;;;;;;;26.38;17.88;;;2.40;91.60;;;;;;5089587;28;20039;-73
2021/01/04 06:41:15;;;;;;;21.70;16.30;;;2.50;91.60;;;;;;5094116;28;20241;-74
2021/01/04 06:43:40;;;;;;;24.80;17.17;;;2.50;91.40;;;;;;5092342;28;20032;-73
2021/01/04 06:46:27;;;;;;;26.67;18.55;;;2.50;91.20;;;;;;5097763;28;20023;-73
2021/01/04 06:49:15;;;;;;;23.70;16.60;;;2.50;91.10;;;;;;5097217;28;20040;-71
2021/01/04 06:52:14;;;;;;;24.95;16.85;;;2.50;91.10;;;;;;5075274;28;20042;-72
2021/01/04 06:55:20;;;;;;;24.23;17.60;;;2.50;91.00;;;;;;5097993;28;20374;-75
2021/01/04 06:58:23;;;;;;;23.75;17.08;;;2.50;91.10;;;;;;5089849;28;20110;-71
2021/01/04 07:01:22;;;;;;;24.92;16.98;;;2.50;91.20;;;;;;5098414;28;20036;-69
2021/01/04 07:04:15;;;;;;;26.15;17.67;;;2.50;90.90;;;;;;5095022;28;20050;-72
2021/01/04 07:07:03;;;;;;;24.65;17.35;;;2.50;91.20;;;;;;5092879;28;20428;-73
2021/01/04 07:10:03;;;;;;;25.75;17.42;;;2.50;91.00;;;;;;5091298;28;20119;-76
2021/01/04 07:12:44;;;;;;;25.40;18.45;;;2.50;91.00;;;;;;5076601;28;20086;-70
2021/01/04 07:15:18;;;;;;;22.45;15.65;;;2.60;90.90;;;;;;5093037;28;20027;-71
2021/01/04 07:18:21;;;;;;;24.27;17.08;;;2.50;90.60;;;;;;5089215;28;20082;-72
2021/01/04 07:21:10;;;;;;;26.35;18.55;;;2.60;90.70;;;;;;5100938;28;20070;-70
2021/01/04 07:23:57;;;;;;;29.98;17.90;;;2.60;90.80;;;;;;5094819;28;20470;-71
2021/01/04 07:27:06;;;;;;;23.23;16.83;;;2.60;91.00;;;;;;5102087;28;20027;-72
2021/01/04 07:29:52;;;;;;;26.13;18.05;;;2.60;91.00;;;;;;5092815;28;20024;-73
2021/01/04 07:32:38;;;;;;;28.85;20.20;;;2.60;90.70;;;;;;5044155;28;20031;-72
2021/01/04 07:35:08;;;;;;;26.00;17.67;;;2.60;90.60;;;;;;5100861;28;20027;-73
2021/01/04 07:37:54;;;;;;;27.00;18.65;;;2.60;90.70;;;;;;5083553;28;20028;-72
2021/01/04 07:40:38;;;;;;;37.72;27.23;;;2.60;90.50;;;;;;5093114;28;20446;-73
2021/01/04 07:43:25;;;;;;;34.28;21.80;;;2.60;90.20;;;;;;5087019;28;20043;-73
2021/01/04 07:46:21;;;;;;;24.33;16.80;;;2.60;90.30;;;;;;5091462;28;20036;-75
2021/01/04 07:49:23;;;;;;;23.77;17.35;;;2.60;90.20;;;;;;5087581;28;20467;-73
2021/01/04 07:52:19;;;;;;;24.50;17.73;;;2.60;89.90;;;;;;5090672;28;20031;-73
2021/01/04 07:55:17;;;;;;;25.77;16.85;;;2.60;90.00;;;;;;5092252;28;20032;-73
2021/01/04 07:57:43;;;;;;;27.27;18.23;;;2.60;89.90;;;;;;5091414;28;20071;-73
2021/01/04 08:00:27;;;;;;;25.35;17.65;;;2.50;90.10;;;;;;5093004;28;20063;-72
2021/01/04 08:03:29;;;;;;;26.25;17.92;;;2.60;90.10;;;;;;5090109;28;20050;-70
2021/01/04 08:06:11;;;;;;;27.77;19.35;;;2.60;90.00;;;;;;5077940;28;20453;-72
2021/01/04 08:08:44;;;;;;;28.02;19.35;;;2.60;90.10;;;;;;5093393;28;20043;-71
2021/01/04 08:11:19;;;;;;;28.70;19.73;;;2.60;90.40;;;;;;5097296;28;20069;-71
2021/01/04 08:14:18;;;;;;;27.75;19.35;;;2.60;90.40;;;;;;5092870;28;20036;-71
2021/01/04 08:16:49;;;;;;;29.20;18.80;;;2.60;90.30;;;;;;5097333;28;20122;-71
2021/01/04 08:19:16;;;;;;;29.13;19.42;;;2.60;90.40;;;;;;5092797;28;20047;-71
2021/01/04 08:21:44;;;;;;;32.47;21.00;;;2.60;90.30;;;;;;5092843;28;20036;-71
2021/01/04 08:24:20;;;;;;;30.20;21.23;;;2.60;90.40;;;;;;5088601;28;20036;-73
2021/01/04 08:27:25;;;;;;;27.50;20.05;;;2.60;90.40;;;;;;5092947;28;20047;-70
2021/01/04 08:30:08;;;;;;;25.77;17.95;;;2.60;90.40;;;;;;5081097;28;20462;-72
2021/01/04 08:32:52;;;;;;;26.75;18.88;;;2.60;90.40;;;;;;5092812;28;20032;-69
2021/01/04 08:35:29;;;;;;;26.58;18.95;;;2.60;90.00;;;;;;5094652;28;20385;-70
2021/01/04 08:38:13;;;;;;;27.98;18.75;;;2.60;90.00;;;;;;5097923;28;20064;-70
2021/01/04 08:41:01;;;;;;;30.15;19.38;;;2.70;90.00;;;;;;5091545;28;20039;-69
2021/01/04 08:43:37;;;;;;;27.45;18.80;;;2.70;89.90;;;;;;5093500;28;20031;-70
2021/01/04 08:46:30;;;;;;;26.77;18.20;;;2.70;89.90;;;;;;5091166;28;20028;-70
2021/01/04 08:48:59;;;;;;;27.65;18.92;;;2.70;89.60;;;;;;5074673;28;20094;-68
2021/01/04 08:51:25;;;;;;;25.42;17.50;;;2.70;89.70;;;;;;5094447;28;20181;-70
2021/01/04 08:54:14;;;;;;;25.75;18.63;;;2.70;89.50;;;;;;5099065;28;20322;-69
2021/01/04 08:57:14;;;;;;;26.85;18.42;;;2.70;89.10;;;;;;5094132;28;20028;-71
2021/01/04 08:59:55;;;;;;;28.40;19.05;;;2.70;89.20;;;;;;5084937;28;20527;-71
2021/01/04 09:02:34;;;;;;;26.88;18.77;;;2.70;89.30;;;;;;5083960;28;20082;-70
2021/01/04 09:05:02;;;;;;;27.75;18.42;;;2.80;89.10;;;;;;5101413;28;20532;-71
2021/01/04 09:07:28;;;;;;;25.33;17.45;;;2.80;88.80;;;;;;5098206;28;20120;-72
2021/01/04 09:10:00;;;;;;;26.98;18.48;;;2.80;88.80;;;;;;5079318;28;20440;-71
2021/01/04 09:12:42;;;;;;;27.67;19.02;;;2.80;88.70;;;;;;5090778;28;20118;-71
2021/01/04 09:15:08;;;;;;;27.77;19.00;;;2.80;88.60;;;;;;5093379;28;20024;-72
2021/01/04 09:17:48;;;;;;;27.95;19.40;;;2.80;88.40;;;;;;5074901;28;20032;-75
2021/01/04 09:20:37;;;;;;;27.27;18.75;;;2.80;88.70;;;;;;5095652;28;20052;-74
2021/01/04 09:23:09;;;;;;;25.55;18.23;;;2.80;88.40;;;;;;5080416;28;20039;-71
2021/01/04 09:25:46;;;;;;;28.35;19.80;;;2.80;88.50;;;;;;5101110;28;20040;-71
2021/01/04 09:28:14;;;;;;;27.83;19.27;;;2.80;88.50;;;;;;5092045;28;20443;-71
2021/01/04 09:30:40;;;;;;;27.55;19.85;;;2.80;88.40;;;;;;5098414;28;20119;-71
2021/01/04 09:33:17;;;;;;;28.27;19.60;;;2.80;88.40;;;;;;5078634;28;20032;-71
2021/01/04 09:35:44;;;;;;;27.27;19.17;;;2.80;88.40;;;;;;5099123;28;20028;-71
2021/01/04 09:38:19;;;;;;;30.35;21.17;;;2.80;88.50;;;;;;5096782;28;20067;-76
2021/01/04 09:40:51;;;;;;;26.00;18.77;;;2.80;88.50;;;;;;5096915;28;20128;-70
2021/01/04 09:43:23;;;;;;;28.13;19.33;;;2.80;88.30;;;;;;5076479;28;20050;-71
2021/01/04 09:45:50;;;;;;;30.13;20.38;;;2.80;88.40;;;;;;5092794;28;20036;-72
2021/01/04 09:48:42;;;;;;;27.92;18.95;;;2.80;88.20;;;;;;5094856;28;20126;-72
2021/01/04 09:51:10;;;;;;;29.55;20.92;;;2.80;88.00;;;;;;5078411;28;20035;-71
2021/01/04 09:53:39;;;;;;;27.05;19.48;;;2.80;88.20;;;;;;5095743;28;20463;-71
2021/01/04 09:56:13;;;;;;;29.95;20.77;;;2.80;88.10;;;;;;5096910;28;20028;-72
2021/01/04 09:58:40;;;;;;;27.40;19.87;;;2.90;88.30;;;;;;5094321;28;20063;-71
2021/01/04 10:01:15;;;;;;;26.08;18.20;;;2.90;87.90;;;;;;5077476;28;20039;-72
2021/01/04 10:03:58;;;;;;;37.08;27.17;;;2.90;88.10;;;;;;5094604;28;20042;-71
2021/01/04 10:06:28;;;;;;;27.80;19.52;;;2.90;87.90;;;;;;5092303;28;20024;-74
2021/01/04 10:08:54;;;;;;;30.15;20.13;;;2.90;87.90;;;;;;5090395;28;20430;-71
2021/01/04 10:11:22;;;;;;;27.23;19.23;;;2.90;87.80;;;;;;5091808;28;20115;-71
2021/01/04 10:13:49;;;;;;;29.70;19.95;;;2.90;87.80;;;;;;5090232;28;20378;-72
2021/01/04 10:16:20;;;;;;;26.02;18.55;;;2.90;88.10;;;;;;5097566;28;20034;-71
2021/01/04 10:19:07;;;;;;;26.23;18.10;;;3.00;87.80;;;;;;5093624;28;20046;-71
2021/01/04 10:21:51;;;;;;;27.92;19.77;;;2.90;87.70;;;;;;5093958;28;20391;-71
2021/01/04 10:24:24;;;;;;;26.77;18.73;;;3.00;88.00;;;;;;5088950;28;20051;-71
2021/01/04 10:26:51;;;;;;;27.05;20.52;;;3.10;87.70;;;;;;5094327;28;20073;-75
2021/01/04 10:29:26;;;;;;;28.38;20.77;;;3.00;87.70;;;;;;5098462;28;20081;-70
2021/01/04 10:32:04;;;;;;;25.20;18.63;;;3.00;87.50;;;;;;5098435;28;20020;-72
2021/01/04 10:34:47;;;;;;;24.98;17.35;;;3.10;87.50;;;;;;5093284;28;20539;-71
2021/01/04 10:37:40;;;;;;;26.75;18.60;;;3.10;87.50;;;;;;5093542;28;20023;-76
2021/01/04 10:40:09;;;;;;;26.88;19.27;;;3.10;87.80;;;;;;5091914;28;20044;-72
2021/01/04 10:42:38;;;;;;;25.88;18.30;;;3.20;87.70;;;;;;5092495;28;20039;-75
2021/01/04 10:45:04;;;;;;;27.20;18.65;;;3.10;87.60;;;;;;5092260;28;20113;-70
2021/01/04 10:47:38;;;;;;;26.90;20.15;;;3.20;87.80;;;;;;5094953;28;20039;-72
2021/01/04 10:50:37;;;;;;;28.13;20.73;;;3.10;87.60;;;;;;5089594;28;20493;-72
2021/01/04 10:53:06;;;;;;;26.13;18.73;;;3.10;87.70;;;;;;5084547;28;20047;-73
2021/01/04 10:55:35;;;;;;;27.58;20.20;;;3.10;87.90;;;;;;5096200;28;20093;-71
2021/01/04 10:58:25;;;;;;;28.75;20.63;;;3.10;87.70;;;;;;5095157;28;20889;-71
2021/01/04 11:01:16;;;;;;;27.55;19.77;;;3.20;87.60;;;;;;5093558;28;20039;-72
2021/01/04 11:03:53;;;;;;;29.30;20.48;;;3.10;87.50;;;;;;5091013;28;20062;-74
2021/01/04 11:06:31;;;;;;;28.63;19.95;;;3.20;87.40;;;;;;5093737;28;20082;-73
2021/01/04 11:08:57;;;;;;;30.20;21.75;;;3.20;87.50;;;;;;5097625;28;20032;-71
2021/01/04 11:11:39;;;;;;;28.70;20.70;;;3.20;87.70;;;;;;5098246;28;20112;-71
2021/01/04 11:14:20;;;;;;;27.85;21.00;;;3.20;87.30;;;;;;5090110;28;20398;-72
2021/01/04 11:16:48;;;;;;;27.80;19.73;;;3.30;87.10;;;;;;5093959;28;20097;-70
2021/01/04 11:19:29;;;;;;;27.02;19.25;;;3.20;86.90;;;;;;5091157;28;20048;-74
2021/01/04 11:21:54;;;;;;;29.98;21.15;;;3.20;86.40;;;;;;5074277;28;20024;-74
2021/01/04 11:24:20;;;;;;;31.30;22.63;;;3.20;86.30;;;;;;5092219;28;20494;-71
2021/01/04 11:26:46;;;;;;;28.05;20.23;;;3.30;87.10;;;;;;5095310;28;20047;-72
2021/01/04 11:29:13;;;;;;;27.48;20.00;;;3.30;86.60;;;;;;5093046;28;20119;-71
2021/01/04 11:31:40;;;;;;;31.48;20.75;;;3.20;86.60;;;;;;5092268;28;20040;-72
2021/01/04 11:34:06;;;;;;;26.02;19.27;;;3.20;86.40;;;;;;5098681;28;20084;-71
2021/01/04 11:36:32;;;;;;;27.92;20.10;;;3.20;86.10;;;;;;5093885;28;20116;-71
2021/01/04 11:38:58;;;;;;;28.25;20.05;;;3.20;86.10;;;;;;5092448;28;20043;-71
2021/01/04 11:41:24;;;;;;;27.13;20.45;;;3.20;86.10;;;;;;5091850;28;20076;-75
2021/01/04 11:43:50;;;;;;;26.23;20.02;;;3.20;86.50;;;;;;5090803;28;20032;-71
2021/01/04 11:46:17;;;;;;;25.35;19.05;;;3.30;86.40;;;;;;5086077;28;20035;-73
2021/01/04 11:48:43;;;;;;;26.17;20.02;;;3.30;86.40;;;;;;5089171;28;20039;-72
2021/01/04 11:51:08;;;;;;;27.48;20.38;;;3.20;86.60;;;;;;5085365;28;20020;-72
2021/01/04 11:53:34;;;;;;;25.60;19.23;;;3.30;86.40;;;;;;5091847;28;20477;-71
2021/01/04 11:56:01;;;;;;;26.48;19.55;;;3.20;86.00;;;;;;5089557;28;20081;-71
2021/01/04 11:58:27;;;;;;;31.15;23.20;;;3.30;86.20;;;;;;5088817;28;20146;-72
2021/01/04 12:00:53;;;;;;;24.88;19.48;;;3.20;86.10;;;;;;5087397;28;20122;-72
2021/01/04 12:03:19;;;;;;;25.98;18.95;;;3.30;86.00;;;;;;5088475;28;20031;-71
2021/01/04 12:05:45;;;;;;;27.55;20.38;;;3.20;86.10;;;;;;5092036;28;20126;-75
2021/01/04 12:08:11;;;;;;;28.15;20.83;;;3.30;86.50;;;;;;5087576;28;20174;-71
2021/01/04 12:10:36;;;;;;;27.90;20.10;;;3.30;86.40;;;;;;5089954;28;20029;-71
2021/01/04 12:13:06;;;;;;;25.95;18.65;;;3.30;86.10;;;;;;5091206;28;20051;-71
2021/01/04 12:15:32;;;;;;;28.67;20.75;;;3.30;86.20;;;;;;5093536;28;20036;-72
2021/01/04 12:17:57;;;;;;;27.58;20.35;;;3.30;86.10;;;;;;5093680;28;20048;-73
2021/01/04 12:20:23;;;;;;;26.73;20.17;;;3.40;85.90;;;;;;5088783;28;20024;-77
2021/01/04 12:22:49;;;;;;;24.52;18.90;;;3.40;86.00;;;;;;5084627;28;20403;-74
2021/01/04 12:25:15;;;;;;;24.27;18.48;;;3.40;85.80;;;;;;5074723;28;20038;-72
2021/01/04 12:27:40;;;;;;;24.75;18.38;;;3.40;85.50;;;;;;5088439;28;20058;-76
2021/01/04 12:30:07;;;;;;;24.08;17.42;;;3.50;85.80;;;;;;5090364;28;20055;-76
2021/01/04 12:32:33;;;;;;;23.83;17.90;;;3.50;85.60;;;;;;5090885;28;20090;-75
2021/01/04 12:34:58;;;;;;;23.40;17.63;;;3.50;85.90;;;;;;5089666;28;20418;-74
2021/01/04 12:37:24;;;;;;;21.88;16.98;;;3.50;85.40;;;;;;5087525;28;20364;-75
2021/01/04 12:39:50;;;;;;;23.27;16.98;;;3.60;85.40;;;;;;5089239;28;20044;-72
2021/01/04 12:42:16;;;;;;;29.55;22.98;;;3.60;85.10;;;;;;5093851;28;20043;-73
2021/01/04 12:44:42;;;;;;;22.50;17.25;;;3.60;85.20;;;;;;5091561;28;20586;-76
2021/01/04 12:47:11;;;;;;;22.08;16.23;;;3.50;85.20;;;;;;5097757;28;20026;-73
2021/01/04 12:49:37;;;;;;;22.27;17.25;;;3.40;84.90;;;;;;5099031;28;20393;-75
2021/01/04 12:52:03;;;;;;;21.30;16.45;;;3.40;85.40;;;;;;5091069;28;20044;-73
2021/01/04 12:54:31;;;;;;;20.65;15.02;;;3.40;85.30;;;;;;5092749;28;20025;-79
2021/01/04 12:57:00;;;;;;;20.75;15.07;;;3.40;85.70;;;;;;5089947;28;20028;-73
2021/01/04 12:59:27;;;;;;;20.15;15.55;;;3.40;85.50;;;;;;5095812;28;20036;-73
2021/01/04 13:01:55;;;;;;;19.30;14.15;;;3.40;85.80;;;;;;5093073;28;20358;-74
2021/01/04 13:04:23;;;;;;;18.33;13.88;;;3.40;86.20;;;;;;5092670;28;20100;-72
2021/01/04 13:06:51;;;;;;;19.98;14.88;;;3.40;86.00;;;;;;5090176;28;20467;-74
2021/01/04 13:09:17;;;;;;;17.50;12.57;;;3.40;86.30;;;;;;5088261;28;20028;-74
2021/01/04 13:11:51;;;;;;;17.80;13.57;;;3.40;86.10;;;;;;5088609;28;20103;-73
2021/01/04 13:14:18;;;;;;;18.05;13.30;;;3.40;86.00;;;;;;5073309;28;20039;-72
2021/01/04 13:16:45;;;;;;;18.20;13.68;;;3.40;86.30;;;;;;5092045;28;20490;-74
2021/01/04 13:19:11;;;;;;;17.92;13.90;;;3.40;86.60;;;;;;5092345;28;20414;-73
2021/01/04 13:21:37;;;;;;;19.17;13.80;;;3.40;86.20;;;;;;5090672;28;20374;-73
2021/01/04 13:24:07;;;;;;;17.85;13.77;;;3.40;86.30;;;;;;5093946;28;20028;-75
2021/01/04 13:26:43;;;;;;;18.42;13.63;;;3.40;86.20;;;;;;5087212;28;20504;-76
2021/01/04 13:29:11;;;;;;;18.55;13.93;;;3.50;86.00;;;;;;5091865;28;20477;-74